Terminal Aerodrome Forecast
Issued by NWS Billings, MT

Home | Current Version | Previous Version | Text Only | Print | Product List | Glossary On
Versions: 1 2 3 4 5 6 7 8 9 10 11 12 13 14 15 16 17 18 19 20 21 22 23
000
FTUS45 KBYZ 061120
TAFBIL
TAF
KBIL 061120Z 0612/0712 23013KT P6SM BKN100 OVC200
     FM061500 25017KT P6SM FEW110 SCT200
     FM070000 23010KT P6SM FEW110 SCT200 WS015/30030KT=

USA.gov is the U.S. government's official web portal to all federal, state and local government web resources and services.